createdAt,value
2022-08-08T00:01:18.778Z,2.97
2022-08-08T00:04:02.815Z,3.00
2022-08-08T00:06:42.998Z,3.65
2022-08-08T00:09:23.669Z,3.55
2022-08-08T00:12:09.445Z,3.60
2022-08-08T00:15:00.081Z,3.38
2022-08-08T00:18:03.804Z,3.00
2022-08-08T00:20:46.183Z,3.38
2022-08-08T00:23:28.537Z,3.70
2022-08-08T00:26:26.340Z,3.05
2022-08-08T00:29:10.072Z,3.50
2022-08-08T00:32:21.039Z,3.22
2022-08-08T00:35:20.086Z,3.33
2022-08-08T00:38:32.240Z,3.58
2022-08-08T00:46:01.272Z,3.63
2022-08-08T00:49:02.598Z,3.42
2022-08-08T00:51:54.923Z,3.10
2022-08-08T00:55:00.516Z,2.80
2022-08-08T00:58:14.666Z,3.55
2022-08-08T01:00:58.975Z,2.95
2022-08-08T01:04:04.491Z,2.72
2022-08-08T01:07:06.047Z,3.20
2022-08-08T01:10:15.976Z,3.20
2022-08-08T01:13:23.015Z,3.47
2022-08-08T01:16:48.714Z,2.80
2022-08-08T01:20:05.049Z,2.63
2022-08-08T01:24:02.742Z,3.58
2022-08-08T01:26:19.097Z,3.20
2022-08-08T01:29:24.890Z,2.92
2022-08-08T01:32:44.812Z,2.78
2022-08-08T01:36:16.838Z,3.40
2022-08-08T01:39:23.556Z,3.58
2022-08-08T01:42:08.180Z,2.92
2022-08-08T01:48:13.984Z,2.87
2022-08-08T01:50:50.403Z,2.83
2022-08-08T01:55:16.692Z,2.70
2022-08-08T01:56:47.378Z,2.95
2022-08-08T02:00:02.437Z,3.30
2022-08-08T02:03:55.809Z,2.80
2022-08-08T02:06:32.986Z,2.92
2022-08-08T02:10:01.585Z,2.92
2022-08-08T02:12:30.025Z,3.00
2022-08-08T02:15:11.080Z,3.33
2022-08-08T02:17:55.791Z,3.40
2022-08-08T02:21:02.342Z,3.40
2022-08-08T02:23:35.692Z,3.53
2022-08-08T02:26:15.869Z,2.80
2022-08-08T02:29:18.906Z,2.83
2022-08-08T02:32:28.547Z,3.17
2022-08-08T02:35:35.692Z,3.67
2022-08-08T02:38:54.395Z,3.40
2022-08-08T02:42:04.662Z,2.65
2022-08-08T02:45:21.419Z,3.05
2022-08-08T02:48:45.291Z,3.05
2022-08-08T02:51:47.584Z,3.22
2022-08-08T02:55:02.301Z,2.83
2022-08-08T02:58:26.581Z,2.83
2022-08-08T03:01:50.893Z,2.97
2022-08-08T03:05:04.439Z,3.88
2022-08-08T03:08:30.747Z,3.30
2022-08-08T03:12:01.768Z,3.03
2022-08-08T03:15:59.843Z,3.20
2022-08-08T03:18:30.995Z,2.45
2022-08-08T03:21:09.664Z,3.03
2022-08-08T03:23:59.531Z,3.47
2022-08-08T03:26:42.870Z,3.30
2022-08-08T03:29:26.985Z,3.08
2022-08-08T03:32:32.073Z,3.80
2022-08-08T03:35:09.799Z,2.40
2022-08-08T03:38:53.660Z,2.97
2022-08-08T03:40:32.075Z,3.40
2022-08-08T03:43:16.711Z,2.85
2022-08-08T03:46:06.173Z,3.50
2022-08-08T03:49:56.585Z,2.78
2022-08-08T03:51:51.191Z,3.00
2022-08-08T03:54:41.564Z,2.83
2022-08-08T03:58:32.275Z,3.65
2022-08-08T04:00:18.155Z,3.08
2022-08-08T04:03:00.968Z,3.25
2022-08-08T04:05:36.304Z,2.90
2022-08-08T04:08:32.981Z,3.17
2022-08-08T04:11:10.656Z,3.08
2022-08-08T04:14:03.609Z,3.08
2022-08-08T04:16:40.367Z,3.28
2022-08-08T04:19:24.166Z,3.50
2022-08-08T04:22:01.027Z,3.05
2022-08-08T04:24:40.304Z,3.55
2022-08-08T04:27:42.740Z,3.42
2022-08-08T04:30:18.209Z,3.53
2022-08-08T04:32:54.304Z,3.58
2022-08-08T04:35:34.473Z,4.32
2022-08-08T04:38:21.145Z,3.75
2022-08-08T04:40:54.295Z,3.72
2022-08-08T04:43:31.999Z,3.65
2022-08-08T04:46:23.507Z,3.78
2022-08-08T04:48:57.110Z,3.30
2022-08-08T04:51:54.836Z,3.50
2022-08-08T04:54:39.805Z,4.13
2022-08-08T04:57:12.736Z,4.03
2022-08-08T04:59:44.341Z,4.32
2022-08-08T05:02:20.276Z,3.45
2022-08-08T05:04:54.707Z,4.53
2022-08-08T05:07:37.842Z,3.63
2022-08-08T05:10:16.973Z,3.88
2022-08-08T05:13:01.897Z,3.45
2022-08-08T05:16:48.042Z,3.40
2022-08-08T05:18:34.237Z,3.17
2022-08-08T05:21:11.342Z,3.65
2022-08-08T05:23:46.420Z,4.05
2022-08-08T05:26:22.085Z,4.25
2022-08-08T05:29:06.206Z,4.00
2022-08-08T05:32:03.632Z,3.83
2022-08-08T05:34:38.755Z,3.03
2022-08-08T05:37:17.251Z,3.55
2022-08-08T05:39:55.355Z,3.33
2022-08-08T05:42:37.932Z,4.15
2022-08-08T05:45:25.701Z,3.55
2022-08-08T05:48:08.878Z,3.00
2022-08-08T05:50:41.744Z,3.80
2022-08-08T05:53:53.839Z,3.17
2022-08-08T05:56:11.530Z,3.75
2022-08-08T05:58:53.649Z,3.58
2022-08-08T06:01:55.638Z,3.70
2022-08-08T06:04:24.398Z,2.80
2022-08-08T06:07:04.834Z,3.67
2022-08-08T06:09:58.650Z,3.28
2022-08-08T06:12:31.540Z,3.72
2022-08-08T06:15:08.396Z,3.40
2022-08-08T06:17:51.138Z,3.15
2022-08-08T06:20:37.556Z,3.17
2022-08-08T06:23:13.127Z,3.00
2022-08-08T06:26:38.413Z,3.35
2022-08-08T06:28:56.992Z,3.60
2022-08-08T06:32:09.422Z,3.35
2022-08-08T06:34:31.585Z,3.25
2022-08-08T06:37:24.386Z,3.22
2022-08-08T06:40:07.328Z,3.58
2022-08-08T06:42:53.959Z,2.78
2022-08-08T06:45:28.477Z,3.33
2022-08-08T06:48:02.316Z,3.60
2022-08-08T06:50:40.119Z,3.65
2022-08-08T06:53:17.341Z,3.00
2022-08-08T06:56:02.260Z,3.25
2022-08-08T06:58:37.091Z,3.20
2022-08-08T07:02:16.413Z,3.40
2022-08-08T07:04:36.924Z,3.20
2022-08-08T07:07:10.373Z,3.50
2022-08-08T07:10:00.020Z,2.65
2022-08-08T07:12:48.052Z,3.50
2022-08-08T07:16:05.035Z,3.13
2022-08-08T07:18:55.848Z,2.47
2022-08-08T07:21:35.186Z,2.50
2022-08-08T07:24:09.849Z,2.55
2022-08-08T07:27:04.841Z,3.08
2022-08-08T07:30:02.452Z,3.00
2022-08-08T07:32:36.757Z,2.78
2022-08-08T07:35:08.921Z,2.45
2022-08-08T07:37:56.416Z,2.45
2022-08-08T07:40:45.910Z,1.85
2022-08-08T07:43:37.111Z,2.00
2022-08-08T07:46:23.148Z,1.85
2022-08-08T07:48:57.191Z,1.75
2022-08-08T07:51:45.070Z,1.30
2022-08-08T07:57:17.126Z,3.47
2022-08-08T08:00:00.892Z,5.20
2022-08-08T08:02:42.437Z,24.55
2022-08-08T08:05:33.505Z,18.45
2022-08-08T08:08:20.519Z,8.60
2022-08-08T08:10:55.342Z,2.70
2022-08-08T08:13:42.592Z,1.70
2022-08-08T08:16:32.618Z,7.47
2022-08-08T08:19:08.031Z,6.05
2022-08-08T08:21:56.980Z,1.55
2022-08-08T08:24:42.858Z,1.70
2022-08-08T08:27:14.645Z,1.63
2022-08-08T08:29:53.471Z,7.45
2022-08-08T08:32:35.805Z,8.75
2022-08-08T08:35:18.125Z,3.92
2022-08-08T08:38:17.929Z,2.65
2022-08-08T08:41:03.207Z,1.20
2022-08-08T08:43:38.242Z,1.90
2022-08-08T08:46:18.969Z,1.58
2022-08-08T08:48:52.730Z,13.93
2022-08-08T08:51:29.018Z,23.42
2022-08-08T08:54:04.737Z,2.75
2022-08-08T08:56:38.598Z,1.10
2022-08-08T08:59:17.941Z,1.95
2022-08-08T09:01:56.745Z,10.50
2022-08-08T09:04:38.655Z,11.20
2022-08-08T09:07:24.166Z,7.10
2022-08-08T09:10:18.072Z,4.53
2022-08-08T09:12:53.302Z,13.50
2022-08-08T09:15:41.482Z,15.65
2022-08-08T09:18:13.478Z,3.45
2022-08-08T09:21:59.112Z,1.58
2022-08-08T09:23:40.792Z,1.48
2022-08-08T09:26:27.250Z,1.30
2022-08-08T09:29:08.241Z,8.30
2022-08-08T09:31:56.018Z,8.30
2022-08-08T09:34:37.591Z,7.10
2022-08-08T09:37:57.787Z,2.67
2022-08-08T09:40:14.430Z,2.30
2022-08-08T09:42:52.186Z,2.92
2022-08-08T09:46:00.750Z,1.77
2022-08-08T09:48:27.021Z,1.65
2022-08-08T09:51:06.126Z,1.55
2022-08-08T09:53:56.422Z,1.33
2022-08-08T09:56:41.013Z,1.65
2022-08-08T09:59:50.242Z,1.20
2022-08-08T10:02:15.767Z,1.50
2022-08-08T10:04:47.815Z,1.50
2022-08-08T10:07:19.924Z,1.20
2022-08-08T10:09:59.646Z,1.15
2022-08-08T10:12:54.350Z,1.00
2022-08-08T10:15:28.586Z,1.00
2022-08-08T10:18:09.241Z,0.95
2022-08-08T10:20:57.646Z,1.20
2022-08-08T10:23:47.098Z,1.27
2022-08-08T10:26:25.734Z,0.70
2022-08-08T10:29:08.338Z,1.23
2022-08-08T10:32:00.573Z,1.10
2022-08-08T10:34:30.886Z,1.00
2022-08-08T10:37:01.579Z,1.27
2022-08-08T10:39:54.446Z,1.35
2022-08-08T10:42:27.477Z,0.98
2022-08-08T10:45:09.581Z,1.10
2022-08-08T10:47:43.764Z,0.75
2022-08-08T10:50:15.784Z,0.95
2022-08-08T10:52:46.493Z,1.15
2022-08-08T10:55:39.459Z,1.00
2022-08-08T10:58:10.704Z,1.30
2022-08-08T11:01:02.920Z,1.25
2022-08-08T11:06:36.639Z,1.30
2022-08-08T11:09:19.960Z,0.82
2022-08-08T11:12:05.832Z,0.93
2022-08-08T11:14:58.061Z,1.10
2022-08-08T11:18:01.297Z,1.13
2022-08-08T11:20:27.917Z,0.93
2022-08-08T11:22:59.074Z,1.00
2022-08-08T11:25:53.221Z,1.17
2022-08-08T11:28:29.840Z,0.85
2022-08-08T11:31:04.907Z,0.90
2022-08-08T11:33:52.447Z,0.95
2022-08-08T11:36:27.702Z,1.20
2022-08-08T11:38:59.765Z,0.98
2022-08-08T11:41:33.939Z,1.17
2022-08-08T11:44:07.104Z,0.82
2022-08-08T11:46:39.897Z,1.30
2022-08-08T11:49:17.465Z,1.00
2022-08-08T11:51:50.311Z,0.90
2022-08-08T11:54:38.066Z,1.08
2022-08-08T11:57:27.237Z,1.20
2022-08-08T12:00:05.551Z,0.97
2022-08-08T12:02:55.712Z,1.00
2022-08-08T12:05:38.856Z,1.05
2022-08-08T12:08:11.293Z,0.90
2022-08-08T12:10:49.247Z,1.00
2022-08-08T12:13:38.491Z,0.93
2022-08-08T12:16:18.635Z,0.85
2022-08-08T12:18:51.465Z,1.08
2022-08-08T12:21:59.312Z,0.80
2022-08-08T12:24:27.944Z,0.88
2022-08-08T12:26:59.348Z,1.00
2022-08-08T12:29:42.181Z,1.00
2022-08-08T12:35:13.412Z,0.68
2022-08-08T12:38:02.610Z,0.60
2022-08-08T12:40:54.289Z,0.90
2022-08-08T12:43:43.587Z,0.85
2022-08-08T12:46:28.668Z,1.00
2022-08-08T12:52:00.283Z,0.70
2022-08-08T12:54:35.980Z,0.88
2022-08-08T12:57:17.078Z,0.80
2022-08-08T13:00:04.991Z,0.65
2022-08-08T13:02:37.105Z,0.82
2022-08-08T13:05:26.915Z,0.93
2022-08-08T13:08:16.144Z,1.30
2022-08-08T13:10:58.050Z,1.13
2022-08-08T13:13:37.664Z,1.15
2022-08-08T13:16:25.460Z,1.15
2022-08-08T13:19:01.694Z,0.98
2022-08-08T13:21:53.197Z,1.00
2022-08-08T13:24:46.430Z,0.95
2022-08-08T13:27:35.912Z,0.77
2022-08-08T13:30:10.626Z,1.08
2022-08-08T13:32:42.227Z,1.58
2022-08-08T13:35:24.834Z,0.90
2022-08-08T13:38:06.901Z,1.00
2022-08-08T13:40:40.930Z,1.27
2022-08-08T13:43:16.273Z,0.93
2022-08-08T13:45:48.360Z,0.70
2022-08-08T13:48:25.217Z,0.82
2022-08-08T13:51:25.084Z,0.73
2022-08-08T13:54:00.229Z,0.90
2022-08-08T13:56:44.847Z,0.90
2022-08-08T13:59:40.832Z,0.90
2022-08-08T14:02:22.464Z,0.90
2022-08-08T14:05:20.260Z,0.85
2022-08-08T14:08:01.641Z,0.88
2022-08-08T14:10:39.518Z,0.77
2022-08-08T14:13:20.903Z,0.98
2022-08-08T14:16:16.686Z,0.80
2022-08-08T14:18:54.790Z,1.05
2022-08-08T14:21:40.738Z,1.23
2022-08-08T14:24:34.435Z,1.10
2022-08-08T14:27:07.592Z,1.20
2022-08-08T14:32:22.179Z,0.93
2022-08-08T14:35:04.529Z,0.90
2022-08-08T14:37:57.276Z,1.10
2022-08-08T14:40:31.450Z,1.00
2022-08-08T14:43:22.175Z,0.90
2022-08-08T14:46:02.291Z,1.45
2022-08-08T14:48:57.129Z,1.25
2022-08-08T14:51:51.852Z,1.35
2022-08-08T14:54:29.235Z,0.82
2022-08-08T14:57:04.183Z,1.50
2022-08-08T14:59:44.483Z,1.23
2022-08-08T15:02:30.887Z,0.93
2022-08-08T15:05:11.406Z,1.25
2022-08-08T15:07:44.635Z,1.15
2022-08-08T15:10:31.151Z,0.82
2022-08-08T15:13:08.840Z,1.10
2022-08-08T15:16:02.393Z,0.98
2022-08-08T15:18:35.890Z,1.08
2022-08-08T15:21:08.882Z,0.90
2022-08-08T15:23:39.759Z,0.68
2022-08-08T15:26:13.067Z,0.90
2022-08-08T15:28:41.673Z,1.00
2022-08-08T15:31:10.632Z,1.33
2022-08-08T15:33:58.902Z,1.02
2022-08-08T15:36:31.438Z,1.10
2022-08-08T15:38:59.763Z,0.95
2022-08-08T15:41:37.085Z,0.98
2022-08-08T15:44:13.859Z,1.02
2022-08-08T15:46:45.526Z,0.88
2022-08-08T15:49:21.073Z,1.10
2022-08-08T15:51:55.807Z,1.00
2022-08-08T15:54:38.158Z,1.00
2022-08-08T15:57:09.382Z,0.95
2022-08-08T16:00:05.687Z,0.90
2022-08-08T16:02:30.564Z,1.35
2022-08-08T16:04:59.563Z,1.10
2022-08-08T16:07:50.825Z,1.10
2022-08-08T16:13:11.481Z,0.77
2022-08-08T16:13:30.733Z,0.80
2022-08-08T16:15:59.756Z,1.02
2022-08-08T16:18:38.180Z,1.17
2022-08-08T16:21:26.463Z,1.45
2022-08-08T16:23:57.244Z,1.25
2022-08-08T16:26:34.745Z,0.70
2022-08-08T16:29:07.911Z,1.65
2022-08-08T16:31:40.507Z,1.15
2022-08-08T16:34:10.612Z,1.10
2022-08-08T16:36:40.777Z,0.80
2022-08-08T16:39:17.029Z,1.02
2022-08-08T16:42:01.821Z,1.23
2022-08-08T16:44:33.867Z,0.98
2022-08-08T16:49:49.527Z,1.25
2022-08-08T16:55:06.176Z,0.93
2022-08-08T16:55:33.943Z,1.02
2022-08-08T16:58:14.834Z,1.15
2022-08-08T17:00:51.773Z,0.82
2022-08-08T17:03:25.322Z,1.13
2022-08-08T17:06:36.061Z,1.33
2022-08-08T17:09:05.718Z,0.80
2022-08-08T17:11:48.252Z,1.60
2022-08-08T17:14:27.179Z,1.20
2022-08-08T17:17:01.676Z,1.10
2022-08-08T17:19:37.468Z,1.30
2022-08-08T17:22:10.776Z,1.13
2022-08-08T17:24:43.163Z,1.38
2022-08-08T17:27:29.123Z,1.38
2022-08-08T17:30:27.630Z,1.02
2022-08-08T17:34:49.365Z,2.10
2022-08-08T17:35:55.875Z,1.90
2022-08-08T17:38:43.024Z,1.70
2022-08-08T17:44:01.190Z,1.40
2022-08-08T17:46:39.290Z,2.60
2022-08-08T17:49:10.135Z,2.20
2022-08-08T17:51:43.676Z,1.70
2022-08-08T17:54:22.425Z,2.20
2022-08-08T17:56:54.176Z,1.77
2022-08-08T17:59:30.497Z,1.60
2022-08-08T18:02:04.874Z,1.20
2022-08-08T18:04:42.568Z,1.00
2022-08-08T18:08:02.978Z,1.13
2022-08-08T18:10:08.693Z,1.15
2022-08-08T18:12:37.434Z,1.55
2022-08-08T18:15:09.811Z,1.60
2022-08-08T18:18:05.039Z,1.23
2022-08-08T18:20:36.680Z,1.20
2022-08-08T18:23:14.740Z,1.30
2022-08-08T18:25:44.394Z,0.98
2022-08-08T18:28:14.307Z,1.98
2022-08-08T18:30:44.372Z,1.50
2022-08-08T18:33:36.420Z,1.50
2022-08-08T18:36:03.677Z,1.52
2022-08-08T18:38:32.423Z,1.70
2022-08-08T18:41:04.322Z,1.60
2022-08-08T18:43:38.002Z,2.15
2022-08-08T18:46:54.478Z,1.73
2022-08-08T18:49:04.197Z,2.00
2022-08-08T18:51:53.878Z,1.40
2022-08-08T18:54:27.375Z,1.30
2022-08-08T18:56:58.888Z,2.30
2022-08-08T18:59:34.608Z,1.98
2022-08-08T19:02:28.410Z,1.35
2022-08-08T19:04:57.822Z,1.40
2022-08-08T19:07:30.013Z,1.58
2022-08-08T19:10:14.759Z,1.20
2022-08-08T19:12:52.994Z,0.80
2022-08-08T19:15:23.883Z,1.38
2022-08-08T19:18:31.757Z,1.15
2022-08-08T19:20:49.189Z,1.33
2022-08-08T19:23:18.733Z,1.27
2022-08-08T19:26:26.958Z,0.93
2022-08-08T19:28:45.433Z,1.40
2022-08-08T19:31:17.036Z,1.55
2022-08-08T19:34:05.082Z,0.90
2022-08-08T19:36:40.771Z,1.20
2022-08-08T19:39:14.585Z,0.98
2022-08-08T19:41:44.391Z,1.02
2022-08-08T19:44:42.410Z,0.88
2022-08-08T19:47:01.567Z,1.00
2022-08-08T19:49:37.886Z,1.30
2022-08-08T19:52:10.505Z,0.90
2022-08-08T19:54:55.404Z,1.00
2022-08-08T19:57:48.604Z,0.90
2022-08-08T20:00:29.217Z,0.95
2022-08-08T20:03:15.161Z,1.40
2022-08-08T20:06:14.931Z,1.38
2022-08-08T20:08:48.142Z,1.88
2022-08-08T20:11:22.002Z,2.10
2022-08-08T20:16:41.243Z,2.15
2022-08-08T20:19:12.177Z,2.35
2022-08-08T20:21:43.875Z,1.52
2022-08-08T20:24:15.675Z,1.92
2022-08-08T20:26:49.138Z,1.73
2022-08-08T20:32:07.336Z,1.33
2022-08-08T20:34:36.708Z,1.38
2022-08-08T20:37:17.734Z,1.30
2022-08-08T20:39:51.910Z,1.20
2022-08-08T20:42:29.259Z,1.65
2022-08-08T20:45:02.034Z,1.73
2022-08-08T20:47:36.424Z,1.30
2022-08-08T20:50:10.086Z,1.70
2022-08-08T20:52:44.775Z,1.65
2022-08-08T20:55:22.892Z,1.60
2022-08-08T20:57:57.805Z,1.52
2022-08-08T21:00:28.050Z,1.20
2022-08-08T21:02:56.618Z,1.30
2022-08-08T21:05:31.825Z,1.40
2022-08-08T21:08:37.213Z,1.38
2022-08-08T21:10:53.525Z,1.48
2022-08-08T21:13:23.476Z,1.58
2022-08-08T21:16:18.277Z,1.27
2022-08-08T21:18:59.214Z,1.90
2022-08-08T21:21:41.060Z,2.25
2022-08-08T21:24:24.120Z,1.83
2022-08-08T21:26:58.870Z,2.08
2022-08-08T21:30:02.933Z,1.88
2022-08-08T21:32:25.086Z,1.25
2022-08-08T21:36:13.726Z,1.73
2022-08-08T21:37:55.649Z,1.13
2022-08-08T21:40:36.368Z,1.55
2022-08-08T21:43:08.219Z,1.67
2022-08-08T21:48:00.982Z,1.60
2022-08-08T21:48:40.310Z,1.27
2022-08-08T21:51:14.783Z,2.10
2022-08-08T21:54:34.917Z,2.35
2022-08-08T21:56:43.332Z,1.73
2022-08-08T21:59:24.227Z,1.90
2022-08-08T22:02:23.442Z,1.42
2022-08-08T22:04:55.654Z,2.00
2022-08-08T22:07:39.804Z,2.10
2022-08-08T22:10:18.181Z,1.83
2022-08-08T22:13:18.848Z,2.00
2022-08-08T22:15:59.439Z,1.63
2022-08-08T22:18:32.564Z,1.63
2022-08-08T22:21:14.097Z,1.73
2022-08-08T22:23:51.621Z,1.50
2022-08-08T22:26:30.932Z,1.63
2022-08-08T22:29:56.877Z,1.77
2022-08-08T22:31:58.778Z,1.75
2022-08-08T22:34:39.946Z,1.50
2022-08-08T22:37:14.837Z,2.60
2022-08-08T22:40:01.160Z,2.25
2022-08-08T22:42:52.520Z,2.67
2022-08-08T22:45:28.590Z,1.60
2022-08-08T22:47:59.040Z,2.35
2022-08-08T22:50:29.194Z,1.92
2022-08-08T22:54:28.439Z,1.77
2022-08-08T22:55:59.190Z,1.77
2022-08-08T22:58:34.405Z,1.63
2022-08-08T23:01:26.685Z,2.00
2022-08-08T23:04:00.416Z,2.38
2022-08-08T23:06:35.066Z,2.10
2022-08-08T23:09:09.607Z,2.10
2022-08-08T23:12:27.683Z,2.20
2022-08-08T23:14:30.812Z,1.92
2022-08-08T23:17:04.394Z,2.13
2022-08-08T23:19:36.291Z,2.38
2022-08-08T23:22:15.021Z,2.78
2022-08-08T23:24:49.247Z,3.15
2022-08-08T23:27:39.125Z,3.13
2022-08-08T23:30:12.941Z,3.17
2022-08-08T23:35:17.442Z,3.22
2022-08-08T23:38:01.683Z,4.38
2022-08-08T23:40:32.051Z,3.40
2022-08-08T23:43:02.823Z,3.67
2022-08-08T23:48:59.633Z,3.67
2022-08-08T23:49:02.738Z,2.90
2022-08-08T23:51:41.655Z,3.03
2022-08-08T23:54:43.600Z,3.13
2022-08-08T23:56:58.626Z,3.03
2022-08-08T23:59:28.718Z,3.20
